Time;durP1;ratioP1;P1;durP2;ratioP2;P2;SDS_P1;SDS_P2;PMS_P1;PMS_P2;Temp;Humidity;BMP_temperature;BMP_pressure;BME280_temperature;BME280_humidity;BME280_pressure;Samples;Min_cycle;Max_cycle;Signal;HPM_P1;HPM_P2
2024/02/22 00:02:20;;;;;;;15.32;2.28;;;8.40;99.90;;;;;;5042627;28;20491;-91
2024/02/22 00:04:46;;;;;;;11.25;1.63;;;8.40;99.90;;;;;;5059914;28;20391;-94
2024/02/22 00:07:16;;;;;;;12.55;1.95;;;8.40;99.90;;;;;;5028359;28;20036;-93
2024/02/22 00:09:41;;;;;;;17.60;2.35;;;8.30;99.90;;;;;;5041768;28;20025;-93
2024/02/22 00:12:07;;;;;;;16.65;2.33;;;8.30;99.90;;;;;;5038148;28;20033;-93
2024/02/22 00:14:34;;;;;;;11.90;2.50;;;8.30;99.90;;;;;;5023333;28;20030;-93
2024/02/22 00:17:02;;;;;;;15.25;2.55;;;8.30;99.90;;;;;;5017542;28;20471;-92
2024/02/22 00:19:28;;;;;;;23.23;2.60;;;8.20;99.90;;;;;;5045909;28;20025;-92
2024/02/22 00:21:54;;;;;;;21.05;3.28;;;8.20;99.90;;;;;;5024121;28;20018;-93
2024/02/22 00:24:19;;;;;;;12.68;3.35;;;8.10;99.90;;;;;;5031554;28;20032;-93
2024/02/22 00:26:48;;;;;;;20.02;1.90;;;8.10;99.90;;;;;;5035595;28;20041;-92
2024/02/22 00:29:14;;;;;;;8.57;1.73;;;8.00;99.90;;;;;;5023828;28;20022;-92
2024/02/22 00:31:39;;;;;;;14.63;2.20;;;8.00;99.90;;;;;;5034618;28;20029;-93
2024/02/22 00:34:07;;;;;;;18.30;2.40;;;7.90;99.90;;;;;;5033920;28;20025;-91
2024/02/22 00:36:43;;;;;;;15.27;2.13;;;7.90;99.90;;;;;;5033267;28;20033;-92
2024/02/22 00:39:12;;;;;;;10.38;2.47;;;7.90;99.90;;;;;;5026571;28;20040;-93
2024/02/22 00:41:38;;;;;;;11.45;1.83;;;7.80;99.90;;;;;;5034330;28;20013;-93
2024/02/22 00:44:07;;;;;;;13.52;2.10;;;7.80;99.90;;;;;;5023314;28;20105;-93
2024/02/22 00:46:33;;;;;;;17.85;1.88;;;7.80;99.90;;;;;;5021772;28;20124;-92
2024/02/22 00:48:59;;;;;;;12.23;2.10;;;7.80;99.90;;;;;;5032991;28;20041;-93
2024/02/22 00:51:25;;;;;;;9.00;1.60;;;7.80;99.90;;;;;;5032995;28;20034;-93
2024/02/22 00:53:50;;;;;;;13.23;2.17;;;7.70;99.90;;;;;;5020374;28;20372;-92
2024/02/22 00:56:16;;;;;;;14.13;2.03;;;7.70;99.90;;;;;;5034840;28;20021;-93
2024/02/22 00:58:42;;;;;;;16.65;2.67;;;7.70;99.90;;;;;;5024968;28;20022;-93
2024/02/22 01:01:10;;;;;;;11.90;2.17;;;7.70;99.90;;;;;;5022322;28;20033;-93
2024/02/22 01:03:37;;;;;;;13.70;2.35;;;7.60;99.90;;;;;;5027364;28;20034;-92
2024/02/22 01:06:03;;;;;;;9.82;1.83;;;7.60;99.90;;;;;;5033623;28;20475;-93
2024/02/22 01:08:28;;;;;;;12.05;1.70;;;7.50;99.90;;;;;;5033896;28;20080;-93
2024/02/22 01:10:54;;;;;;;21.08;2.10;;;7.50;99.90;;;;;;5033735;28;20017;-91
2024/02/22 01:13:20;;;;;;;10.13;1.55;;;7.50;99.90;;;;;;5032687;28;20035;-91
2024/02/22 01:15:46;;;;;;;13.18;1.92;;;7.50;99.90;;;;;;5033101;28;20025;-91
2024/02/22 01:18:12;;;;;;;12.98;2.47;;;7.40;99.90;;;;;;5034296;28;20028;-93
2024/02/22 01:20:39;;;;;;;18.30;2.53;;;7.40;99.90;;;;;;5030039;28;20084;-94
2024/02/22 01:23:06;;;;;;;9.50;1.70;;;7.40;99.90;;;;;;5032558;28;20421;-92
2024/02/22 01:25:32;;;;;;;16.02;2.15;;;7.40;99.90;;;;;;5031311;28;20079;-93
2024/02/22 01:27:58;;;;;;;12.65;1.67;;;7.30;99.90;;;;;;5014039;28;20041;-92
2024/02/22 01:30:24;;;;;;;10.30;3.00;;;7.30;99.90;;;;;;5048581;28;20025;-93
2024/02/22 01:32:52;;;;;;;16.92;2.33;;;7.20;99.90;;;;;;5036217;28;20030;-92
2024/02/22 01:35:18;;;;;;;21.20;2.60;;;7.20;99.90;;;;;;5028051;28;20025;-92
2024/02/22 01:37:44;;;;;;;12.07;1.80;;;7.20;99.90;;;;;;5024324;28;20026;-94
2024/02/22 01:40:12;;;;;;;21.88;2.35;;;7.10;99.90;;;;;;5033178;28;20026;-94
2024/02/22 01:42:44;;;;;;;20.73;2.97;;;7.10;99.90;;;;;;5033449;28;20045;-94
2024/02/22 01:45:12;;;;;;;14.70;2.33;;;7.10;99.90;;;;;;5032643;28;20030;-93
2024/02/22 01:47:38;;;;;;;14.57;2.17;;;7.10;99.90;;;;;;5021608;28;20037;-96
2024/02/22 01:50:08;;;;;;;10.20;2.15;;;7.00;99.90;;;;;;5030067;28;20084;-92
2024/02/22 01:52:34;;;;;;;15.18;1.70;;;7.00;99.90;;;;;;5032787;28;20112;-93
2024/02/22 01:55:00;;;;;;;22.35;2.03;;;7.00;99.90;;;;;;5024011;28;20026;-93
2024/02/22 01:57:26;;;;;;;15.10;2.38;;;7.00;99.90;;;;;;5033435;28;20021;-93
2024/02/22 01:59:53;;;;;;;11.35;2.40;;;7.00;99.90;;;;;;5035689;28;20461;-94
2024/02/22 02:02:19;;;;;;;15.82;1.92;;;7.10;99.90;;;;;;5035762;28;20033;-94
2024/02/22 02:04:46;;;;;;;14.52;1.73;;;7.10;99.90;;;;;;5049407;28;20052;-94
2024/02/22 02:07:12;;;;;;;15.43;2.47;;;7.10;99.90;;;;;;5047054;28;20056;-94
2024/02/22 02:09:37;;;;;;;14.98;1.85;;;7.10;99.90;;;;;;5039436;28;20025;-94
2024/02/22 02:12:03;;;;;;;12.32;1.77;;;7.10;99.90;;;;;;5038029;28;20049;-94
2024/02/22 02:14:29;;;;;;;17.17;3.70;;;7.10;99.90;;;;;;5035807;28;20410;-94
2024/02/22 02:16:55;;;;;;;18.90;2.40;;;7.10;99.90;;;;;;5032379;28;20037;-95
2024/02/22 02:19:24;;;;;;;11.82;2.03;;;7.20;99.90;;;;;;5032209;28;20029;-94
2024/02/22 02:22:25;;;;;;;12.75;2.00;;;7.20;99.90;;;;;;5031212;28;20025;-95
2024/02/22 02:25:04;;;;;;;16.85;2.20;;;7.20;99.90;;;;;;5001571;28;20033;-96
2024/02/22 02:27:31;;;;;;;13.00;2.30;;;7.20;99.90;;;;;;5031152;28;20038;-95
2024/02/22 02:29:56;;;;;;;25.50;3.13;;;7.20;99.90;;;;;;5033822;28;20022;-94
2024/02/22 02:32:22;;;;;;;14.82;2.60;;;7.20;99.90;;;;;;5016783;28;20022;-93
2024/02/22 02:34:48;;;;;;;12.95;1.95;;;7.20;99.90;;;;;;5011489;28;20022;-93
2024/02/22 02:37:14;;;;;;;10.93;2.20;;;7.30;99.90;;;;;;5011472;28;20421;-94
2024/02/22 02:39:41;;;;;;;16.77;2.22;;;7.30;99.90;;;;;;5012270;28;20584;-94
2024/02/22 02:42:07;;;;;;;28.10;3.47;;;7.30;99.90;;;;;;5011437;28;20148;-93
2024/02/22 02:44:33;;;;;;;21.25;2.42;;;7.30;99.90;;;;;;5011723;28;20030;-91
2024/02/22 02:46:58;;;;;;;22.48;2.50;;;7.30;99.90;;;;;;5011739;28;20038;-93
2024/02/22 02:49:24;;;;;;;31.95;2.30;;;7.30;99.90;;;;;;5026871;28;20044;-93
2024/02/22 02:51:50;;;;;;;18.38;2.60;;;7.20;99.90;;;;;;5031198;28;20057;-92
2024/02/22 02:54:19;;;;;;;18.80;1.80;;;7.30;99.90;;;;;;5032497;28;20071;-93
2024/02/22 02:56:46;;;;;;;21.38;2.13;;;7.30;99.90;;;;;;5032553;28;20087;-92
2024/02/22 02:59:14;;;;;;;18.73;3.10;;;7.30;99.90;;;;;;5032640;28;20038;-93
2024/02/22 03:01:48;;;;;;;18.10;2.85;;;7.30;99.90;;;;;;5032538;28;20471;-92
2024/02/22 03:04:16;;;;;;;20.83;2.22;;;7.30;99.90;;;;;;5032525;28;20033;-93
2024/02/22 03:06:41;;;;;;;13.90;2.08;;;7.30;99.90;;;;;;5035269;28;20034;-94
2024/02/22 03:09:07;;;;;;;16.55;2.00;;;7.30;99.90;;;;;;5035657;28;20034;-93
2024/02/22 03:11:33;;;;;;;28.33;2.70;;;7.40;99.90;;;;;;5036426;28;20056;-94
2024/02/22 03:13:59;;;;;;;13.75;2.15;;;7.40;99.90;;;;;;5036238;28;20075;-94
2024/02/22 03:16:24;;;;;;;21.42;3.85;;;7.40;99.90;;;;;;5037030;28;20029;-94
2024/02/22 03:18:53;;;;;;;21.63;2.40;;;7.40;99.90;;;;;;5044699;28;20083;-93
2024/02/22 03:21:22;;;;;;;24.20;2.40;;;7.40;99.90;;;;;;5045414;28;20021;-92
2024/02/22 03:23:49;;;;;;;15.25;2.58;;;7.40;99.90;;;;;;5044890;28;20024;-93
2024/02/22 03:26:16;;;;;;;21.00;2.58;;;7.40;99.90;;;;;;5043687;28;20029;-91
2024/02/22 03:28:42;;;;;;;15.95;3.50;;;7.50;99.90;;;;;;5038019;28;20026;-93
2024/02/22 03:31:08;;;;;;;24.00;2.83;;;7.40;99.90;;;;;;5039212;28;20021;-94
2024/02/22 03:33:34;;;;;;;18.52;2.88;;;7.40;99.90;;;;;;5036344;28;20025;-94
2024/02/22 03:36:00;;;;;;;20.17;3.50;;;7.40;99.90;;;;;;5036938;28;20041;-93
2024/02/22 03:38:26;;;;;;;21.58;3.70;;;7.40;99.90;;;;;;5036254;28;20028;-92
2024/02/22 03:40:53;;;;;;;24.30;2.72;;;7.40;99.90;;;;;;5037725;28;20074;-93
2024/02/22 03:43:19;;;;;;;23.75;3.10;;;7.40;99.90;;;;;;5035620;28;20261;-93
2024/02/22 03:45:45;;;;;;;19.23;2.92;;;7.40;99.90;;;;;;5035665;28;20429;-92
2024/02/22 03:48:11;;;;;;;29.70;4.32;;;7.40;99.90;;;;;;5035976;28;20037;-93
2024/02/22 03:50:37;;;;;;;18.27;3.58;;;7.40;99.90;;;;;;5035681;28;20036;-94
2024/02/22 03:53:03;;;;;;;32.63;4.55;;;7.30;99.90;;;;;;5036209;28;20032;-93
2024/02/22 03:55:30;;;;;;;17.38;2.35;;;7.40;99.90;;;;;;5036844;28;20040;-93
2024/02/22 03:57:56;;;;;;;28.23;3.65;;;7.40;99.90;;;;;;5036229;28;20466;-93
2024/02/22 04:00:22;;;;;;;24.23;3.55;;;7.40;99.90;;;;;;5036046;28;20061;-92
2024/02/22 04:02:48;;;;;;;22.70;2.75;;;7.50;99.90;;;;;;5036816;28;20038;-93
2024/02/22 04:05:15;;;;;;;22.02;3.28;;;7.50;99.90;;;;;;5046038;28;20036;-92
2024/02/22 04:07:44;;;;;;;25.15;3.47;;;7.50;99.90;;;;;;5057028;28;20207;-93
2024/02/22 04:10:10;;;;;;;26.02;4.45;;;7.50;99.90;;;;;;5055824;28;20010;-93
2024/02/22 04:12:36;;;;;;;18.33;4.22;;;7.60;99.90;;;;;;5046011;28;20041;-92
2024/02/22 04:15:03;;;;;;;17.58;3.13;;;7.60;99.90;;;;;;5036476;28;20021;-91
2024/02/22 04:17:29;;;;;;;30.58;3.92;;;7.60;99.90;;;;;;5034377;28;20036;-92
2024/02/22 04:19:56;;;;;;;17.05;2.63;;;7.60;99.90;;;;;;5034644;28;20471;-92
2024/02/22 04:22:22;;;;;;;15.80;3.20;;;7.60;99.90;;;;;;5034758;28;20026;-96
2024/02/22 04:24:47;;;;;;;16.42;2.80;;;7.70;99.90;;;;;;5035191;28;20033;-92
2024/02/22 04:27:14;;;;;;;18.48;2.67;;;7.70;99.90;;;;;;5034782;28;20043;-91
2024/02/22 04:29:40;;;;;;;12.85;2.92;;;7.70;99.90;;;;;;5034813;28;20034;-91
2024/02/22 04:32:06;;;;;;;27.13;4.38;;;7.70;99.90;;;;;;5034048;28;20036;-91
2024/02/22 04:34:32;;;;;;;22.83;3.53;;;7.70;99.90;;;;;;5034908;28;20068;-93
2024/02/22 04:36:58;;;;;;;23.60;2.92;;;7.70;99.90;;;;;;5035027;28;20041;-92
2024/02/22 04:39:23;;;;;;;23.35;3.28;;;7.70;99.90;;;;;;5036669;28;20022;-95
2024/02/22 04:41:49;;;;;;;18.08;2.85;;;7.70;99.90;;;;;;5046356;28;20059;-92
2024/02/22 04:44:15;;;;;;;16.88;3.78;;;7.70;99.90;;;;;;5044892;28;20440;-91
2024/02/22 04:46:41;;;;;;;20.55;3.15;;;7.70;99.90;;;;;;5043495;28;20116;-91
2024/02/22 04:49:09;;;;;;;16.25;2.70;;;7.70;99.90;;;;;;5036044;28;20021;-91
2024/02/22 04:51:35;;;;;;;16.83;2.75;;;7.70;99.90;;;;;;5034796;28;20196;-91
2024/02/22 04:54:02;;;;;;;13.25;2.30;;;7.60;99.90;;;;;;5034369;28;20059;-92
2024/02/22 04:56:28;;;;;;;12.10;4.72;;;7.60;99.90;;;;;;5035554;28;20032;-92
2024/02/22 04:58:57;;;;;;;15.57;2.80;;;7.60;99.90;;;;;;5034044;28;20026;-92
2024/02/22 05:01:24;;;;;;;18.17;2.63;;;7.60;99.90;;;;;;5034080;28;20033;-92
2024/02/22 05:03:50;;;;;;;20.30;4.20;;;7.60;99.90;;;;;;5033585;28;20020;-94
2024/02/22 05:06:16;;;;;;;16.17;2.22;;;7.60;99.90;;;;;;5036149;28;20474;-90
2024/02/22 05:08:42;;;;;;;16.95;2.20;;;7.60;99.90;;;;;;5034100;28;20033;-94
2024/02/22 05:11:08;;;;;;;15.00;2.30;;;7.60;99.90;;;;;;5035219;28;20088;-91
2024/02/22 05:13:34;;;;;;;14.02;2.33;;;7.60;99.90;;;;;;5033617;28;20529;-91
2024/02/22 05:16:00;;;;;;;17.55;2.63;;;7.70;99.90;;;;;;5033625;28;20125;-91
2024/02/22 05:18:25;;;;;;;13.93;3.10;;;7.70;99.90;;;;;;5033347;28;20093;-92
2024/02/22 05:20:54;;;;;;;18.90;3.25;;;7.70;99.90;;;;;;5034159;28;20032;-91
2024/02/22 05:23:20;;;;;;;23.02;3.67;;;7.70;99.90;;;;;;5034093;28;20029;-93
2024/02/22 05:25:45;;;;;;;11.77;2.13;;;7.70;99.90;;;;;;5034706;28;20029;-92
2024/02/22 05:28:12;;;;;;;3.45;0.90;;;7.70;99.90;;;;;;5032736;28;20029;-91
2024/02/22 05:30:38;;;;;;;3.13;1.55;;;7.70;99.90;;;;;;5033647;28;20026;-91
2024/02/22 05:33:09;;;;;;;1.85;0.45;;;7.60;99.90;;;;;;5033485;28;20029;-91
2024/02/22 05:35:37;;;;;;;1.92;0.35;;;7.40;99.90;;;;;;5033413;28;20068;-91
2024/02/22 05:38:03;;;;;;;1.20;0.45;;;7.30;99.90;;;;;;5034580;28;20025;-91
2024/02/22 05:40:29;;;;;;;2.58;0.75;;;7.20;99.90;;;;;;5033886;28;20137;-91
2024/02/22 05:42:55;;;;;;;2.85;0.60;;;7.20;99.90;;;;;;5032951;28;20055;-94
2024/02/22 05:45:42;;;;;;;5.50;0.77;;;7.20;99.90;;;;;;5033773;28;20036;-92
2024/02/22 05:48:09;;;;;;;3.40;0.50;;;7.20;99.90;;;;;;5033468;28;20060;-92
2024/02/22 05:50:35;;;;;;;1.10;0.20;;;7.10;99.90;;;;;;5033662;28;20541;-91
2024/02/22 05:53:01;;;;;;;2.58;0.40;;;7.10;99.90;;;;;;5034017;28;20060;-93
2024/02/22 05:55:27;;;;;;;1.90;0.40;;;7.00;99.90;;;;;;5034678;28;20026;-92
2024/02/22 05:57:54;;;;;;;1.48;1.00;;;7.00;99.90;;;;;;5039655;28;20033;-92
2024/02/22 06:00:26;;;;;;;1.88;0.38;;;7.00;99.90;;;;;;5025781;28;20034;-91
2024/02/22 06:03:02;;;;;;;0.73;0.32;;;7.00;99.90;;;;;;5042362;28;20033;-92
2024/02/22 06:05:34;;;;;;;4.20;0.50;;;6.90;99.90;;;;;;5034578;28;20041;-92
2024/02/22 06:08:06;;;;;;;1.30;0.40;;;6.90;99.90;;;;;;5035802;28;20535;-92
2024/02/22 06:10:33;;;;;;;0.88;0.40;;;6.90;99.90;;;;;;5035024;28;20040;-91
2024/02/22 06:12:59;;;;;;;2.00;0.70;;;6.90;99.90;;;;;;5033997;28;20037;-90
2024/02/22 06:15:25;;;;;;;0.90;0.32;;;6.90;99.90;;;;;;5033504;28;20086;-91
2024/02/22 06:17:50;;;;;;;0.95;0.50;;;6.90;99.90;;;;;;5033608;28;20033;-90
2024/02/22 06:20:16;;;;;;;1.05;0.20;;;6.90;99.90;;;;;;5033391;28;20480;-92
2024/02/22 06:22:44;;;;;;;2.05;0.28;;;6.80;99.90;;;;;;5034154;28;20110;-92
2024/02/22 06:25:10;;;;;;;3.10;0.20;;;6.80;99.90;;;;;;5034898;28;20112;-93
2024/02/22 06:27:41;;;;;;;1.35;0.38;;;6.80;99.90;;;;;;5033229;28;20105;-95
2024/02/22 06:30:07;;;;;;;2.10;0.43;;;6.80;99.90;;;;;;5033712;28;20028;-93
2024/02/22 06:32:34;;;;;;;2.17;1.00;;;6.80;99.90;;;;;;5032898;28;20034;-90
2024/02/22 06:35:00;;;;;;;1.00;0.30;;;6.80;99.90;;;;;;5033314;28;20057;-91
2024/02/22 06:37:31;;;;;;;2.53;0.47;;;6.80;99.90;;;;;;5033596;28;20037;-92
2024/02/22 06:40:02;;;;;;;0.88;0.50;;;6.80;99.90;;;;;;5035836;28;20116;-93
2024/02/22 06:42:29;;;;;;;;;;;6.70;99.90;;;;;;5033983;28;20103;-91
2024/02/22 06:44:55;;;;;;;1.77;0.35;;;6.70;99.90;;;;;;5021308;28;19921;-92
2024/02/22 06:47:22;;;;;;;1.17;0.10;;;6.60;99.90;;;;;;5037737;28;20060;-92
2024/02/22 06:49:49;;;;;;;0.55;0.20;;;6.60;99.90;;;;;;5037813;28;20028;-92
2024/02/22 06:52:23;;;;;;;2.15;0.40;;;6.50;99.90;;;;;;5037597;28;20034;-92
2024/02/22 06:54:50;;;;;;;1.27;0.20;;;6.50;99.90;;;;;;5038224;28;20034;-91
2024/02/22 06:57:19;;;;;;;4.10;0.50;;;6.50;99.90;;;;;;5041935;28;20104;-92
2024/02/22 06:59:46;;;;;;;2.65;0.40;;;6.40;99.90;;;;;;5045391;28;20490;-91
2024/02/22 07:02:17;;;;;;;1.90;0.40;;;6.40;99.90;;;;;;5046723;28;20044;-91
2024/02/22 07:04:58;;;;;;;1.95;0.50;;;6.40;99.90;;;;;;5053785;28;20573;-89
2024/02/22 07:07:24;;;;;;;1.92;0.70;;;6.40;99.90;;;;;;5052277;28;20025;-92
2024/02/22 07:09:52;;;;;;;2.63;0.63;;;6.30;99.90;;;;;;5049701;28;20037;-91
2024/02/22 07:12:20;;;;;;;1.00;0.43;;;6.30;99.90;;;;;;5044058;28;20018;-92
2024/02/22 07:14:46;;;;;;;1.90;0.30;;;6.30;99.90;;;;;;5043654;28;20108;-92
2024/02/22 07:17:13;;;;;;;1.30;0.15;;;6.20;99.90;;;;;;5042948;28;20045;-94
2024/02/22 07:19:43;;;;;;;2.92;0.30;;;6.20;99.90;;;;;;5042815;28;20033;-91
2024/02/22 07:22:11;;;;;;;1.65;0.22;;;6.20;99.90;;;;;;5026942;28;20050;-89
2024/02/22 07:24:36;;;;;;;0.15;0.10;;;6.10;99.90;;;;;;5045825;28;20038;-90
2024/02/22 07:27:02;;;;;;;1.15;0.50;;;6.10;99.90;;;;;;5039279;28;20060;-92
2024/02/22 07:29:28;;;;;;;0.40;0.10;;;6.10;99.90;;;;;;5042132;28;20029;-92
2024/02/22 07:31:54;;;;;;;2.38;0.60;;;6.00;99.90;;;;;;5042583;28;20029;-92
2024/02/22 07:34:20;;;;;;;1.65;0.20;;;6.00;99.90;;;;;;5042401;28;20033;-91
2024/02/22 07:36:46;;;;;;;0.30;0.20;;;6.00;99.90;;;;;;5040133;28;20029;-91
2024/02/22 07:39:12;;;;;;;1.15;0.28;;;6.00;99.90;;;;;;5040453;28;20040;-91
2024/02/22 07:41:43;;;;;;;1.45;0.32;;;6.00;99.90;;;;;;5039312;28;20036;-93
2024/02/22 07:44:08;;;;;;;;;;;6.00;99.90;;;;;;5022995;28;20033;-93
2024/02/22 07:46:34;;;;;;;1.38;0.30;;;6.00;99.90;;;;;;5022582;28;19916;-93
2024/02/22 07:49:00;;;;;;;3.63;0.30;;;6.00;99.90;;;;;;5021530;28;20030;-91
2024/02/22 07:51:26;;;;;;;0.60;0.50;;;5.90;99.90;;;;;;5020576;28;20052;-92
2024/02/22 07:53:52;;;;;;;2.25;0.63;;;6.00;99.90;;;;;;5021470;28;20180;-92
2024/02/22 07:56:18;;;;;;;2.00;0.63;;;6.00;99.90;;;;;;5022215;28;20021;-93
2024/02/22 07:58:48;;;;;;;3.72;1.00;;;6.10;99.90;;;;;;5017708;28;20509;-93
2024/02/22 08:01:14;;;;;;;1.05;0.80;;;6.10;99.90;;;;;;5008233;28;20026;-93
2024/02/22 08:03:44;;;;;;;0.63;0.38;;;6.10;99.90;;;;;;5003619;28;20038;-92
2024/02/22 08:06:13;;;;;;;4.50;0.80;;;6.20;99.90;;;;;;5004681;28;20053;-93
2024/02/22 08:08:39;;;;;;;1.92;0.60;;;6.20;99.90;;;;;;5008707;28;20029;-92
2024/02/22 08:11:10;;;;;;;1.50;0.70;;;6.20;99.90;;;;;;5010603;28;20116;-93
2024/02/22 08:13:36;;;;;;;3.92;0.80;;;6.20;99.90;;;;;;5010789;28;20029;-92
2024/02/22 08:16:05;;;;;;;0.82;0.40;;;6.20;99.90;;;;;;5007705;28;20037;-93
2024/02/22 08:18:33;;;;;;;5.37;1.40;;;6.20;99.90;;;;;;4999717;28;20086;-92
2024/02/22 08:21:00;;;;;;;2.90;1.48;;;6.10;99.90;;;;;;5002084;28;20498;-94
2024/02/22 08:23:26;;;;;;;3.53;1.35;;;6.00;99.90;;;;;;5006938;28;20022;-93
2024/02/22 08:25:51;;;;;;;3.47;0.90;;;5.90;99.90;;;;;;5003901;28;20060;-91
2024/02/22 08:28:17;;;;;;;1.55;0.95;;;5.90;99.90;;;;;;5011782;28;20053;-93
2024/02/22 08:30:43;;;;;;;1.98;0.95;;;5.80;99.90;;;;;;5006797;28;20021;-93
2024/02/22 08:33:11;;;;;;;3.05;0.60;;;5.70;99.90;;;;;;5008479;28;20048;-94
2024/02/22 08:35:37;;;;;;;1.58;0.30;;;5.70;99.90;;;;;;5010870;28;20029;-94
2024/02/22 08:38:03;;;;;;;3.50;0.60;;;5.70;99.90;;;;;;5008528;28;20025;-93
2024/02/22 08:40:28;;;;;;;1.45;0.40;;;5.70;99.90;;;;;;5004221;28;20510;-94
2024/02/22 08:42:54;;;;;;;2.65;0.88;;;5.60;99.90;;;;;;5019778;28;20093;-92
2024/02/22 08:45:20;;;;;;;2.45;0.60;;;5.70;99.90;;;;;;5037676;28;20577;-92
2024/02/22 08:47:46;;;;;;;1.40;0.50;;;5.70;99.90;;;;;;5035852;28;20041;-94
2024/02/22 08:50:12;;;;;;;1.95;0.40;;;5.70;99.90;;;;;;5035873;28;20565;-94
2024/02/22 08:52:41;;;;;;;0.90;0.43;;;5.80;99.90;;;;;;5037266;28;20026;-93
2024/02/22 08:55:11;;;;;;;2.72;0.47;;;5.80;99.90;;;;;;5043053;28;20018;-95
2024/02/22 08:57:37;;;;;;;1.15;0.35;;;5.80;99.90;;;;;;5052376;28;20483;-94
2024/02/22 09:00:04;;;;;;;1.52;0.50;;;5.80;99.90;;;;;;5051129;28;20025;-92
2024/02/22 09:02:30;;;;;;;2.75;0.65;;;5.70;99.90;;;;;;5057115;28;20096;-93
2024/02/22 09:04:57;;;;;;;0.57;0.45;;;5.70;99.90;;;;;;5039780;28;20026;-92
2024/02/22 09:07:24;;;;;;;1.70;0.30;;;5.70;99.90;;;;;;5037311;28;20033;-93
2024/02/22 09:09:53;;;;;;;0.95;0.20;;;5.70;99.90;;;;;;5038088;28;20082;-95
2024/02/22 09:12:20;;;;;;;2.78;0.47;;;5.70;99.90;;;;;;5031421;28;20018;-95
2024/02/22 09:14:45;;;;;;;2.88;0.45;;;5.60;99.90;;;;;;5030129;28;20022;-93
2024/02/22 09:17:11;;;;;;;0.98;0.50;;;5.60;99.90;;;;;;5021474;28;20032;-95
2024/02/22 09:19:37;;;;;;;2.03;0.70;;;5.50;99.90;;;;;;5022039;28;20037;-94
2024/02/22 09:22:03;;;;;;;0.80;0.40;;;5.60;99.90;;;;;;5024582;28;20040;-95
2024/02/22 09:24:30;;;;;;;0.93;0.47;;;5.60;99.90;;;;;;5032555;28;20582;-94
2024/02/22 09:26:57;;;;;;;1.05;0.65;;;5.70;99.90;;;;;;5034664;28;20051;-95
2024/02/22 09:29:24;;;;;;;0.50;0.40;;;5.80;99.90;;;;;;5030132;28;20113;-95
2024/02/22 09:31:51;;;;;;;2.03;0.40;;;5.80;99.90;;;;;;5032288;28;20029;-95
2024/02/22 09:34:17;;;;;;;1.50;0.80;;;5.90;99.90;;;;;;5033508;28;20029;-94
2024/02/22 09:36:43;;;;;;;0.85;0.47;;;6.00;99.90;;;;;;5026201;28;20041;-94
2024/02/22 09:39:09;;;;;;;1.95;0.70;;;6.00;99.90;;;;;;5025957;28;20029;-95
2024/02/22 09:41:35;;;;;;;2.72;0.60;;;6.00;99.90;;;;;;5036304;28;20474;-95
2024/02/22 09:44:01;;;;;;;2.20;0.75;;;6.10;99.90;;;;;;5006563;28;20046;-93
2024/02/22 09:46:27;;;;;;;3.60;0.95;;;6.20;99.90;;;;;;5008223;28;20022;-92
2024/02/22 09:48:53;;;;;;;2.63;0.63;;;6.20;99.90;;;;;;5006451;28;20054;-93
2024/02/22 09:51:19;;;;;;;2.38;0.85;;;6.30;99.90;;;;;;5023806;28;20029;-94
2024/02/22 09:53:45;;;;;;;1.80;0.80;;;6.30;99.90;;;;;;5038629;28;20010;-94
2024/02/22 09:56:14;;;;;;;1.55;0.80;;;6.40;99.90;;;;;;5016685;28;20026;-94
2024/02/22 09:58:40;;;;;;;0.98;0.55;;;6.40;99.90;;;;;;5007326;28;20026;-93
2024/02/22 10:01:07;;;;;;;1.35;0.63;;;6.40;99.90;;;;;;5007770;28;20031;-94
2024/02/22 10:03:37;;;;;;;2.45;0.60;;;6.40;99.90;;;;;;5008870;28;20028;-95
2024/02/22 10:06:04;;;;;;;1.27;0.60;;;6.40;99.90;;;;;;5002199;28;20517;-93
2024/02/22 10:08:29;;;;;;;1.33;0.60;;;6.40;99.90;;;;;;5006542;28;20052;-95
2024/02/22 10:11:06;;;;;;;0.73;0.55;;;6.40;99.90;;;;;;5008562;28;20022;-93
2024/02/22 10:13:33;;;;;;;0.70;0.50;;;6.40;99.90;;;;;;5003860;28;20057;-93
2024/02/22 10:16:11;;;;;;;3.05;0.65;;;6.50;99.90;;;;;;4988808;28;20029;-94
2024/02/22 10:18:37;;;;;;;1.30;0.50;;;6.50;99.90;;;;;;4995044;28;20442;-93
2024/02/22 10:21:17;;;;;;;2.15;0.52;;;6.60;99.90;;;;;;5010944;28;20104;-94
2024/02/22 10:23:54;;;;;;;2.72;0.80;;;6.60;99.90;;;;;;5005855;28;20386;-94
2024/02/22 10:26:20;;;;;;;0.90;0.60;;;6.60;99.90;;;;;;5007611;28;20052;-93
2024/02/22 10:29:09;;;;;;;0.73;0.40;;;6.60;99.90;;;;;;5007757;28;20048;-93
2024/02/22 10:31:46;;;;;;;0.60;0.60;;;6.60;99.90;;;;;;5024812;28;20022;-93
2024/02/22 10:34:14;;;;;;;0.80;0.80;;;6.60;99.90;;;;;;5006827;28;20034;-94
2024/02/22 10:36:40;;;;;;;0.68;0.50;;;6.60;99.90;;;;;;5007628;28;20149;-95
2024/02/22 10:39:09;;;;;;;4.78;0.88;;;6.70;99.90;;;;;;5010794;28;20026;-94
2024/02/22 10:41:35;;;;;;;2.47;0.65;;;6.60;99.90;;;;;;5013397;28;20022;-93
2024/02/22 10:44:06;;;;;;;4.20;2.10;;;6.60;99.90;;;;;;5010728;28;20029;-93
2024/02/22 10:46:37;;;;;;;5.43;2.65;;;6.40;99.90;;;;;;5014276;28;20108;-94
2024/02/22 10:49:07;;;;;;;3.08;1.20;;;6.40;99.90;;;;;;5009777;28;20424;-93
2024/02/22 10:51:34;;;;;;;4.28;2.13;;;6.40;99.90;;;;;;5008750;28;20017;-93
2024/02/22 10:54:03;;;;;;;3.72;1.10;;;6.40;99.90;;;;;;5007258;28;20129;-93
2024/02/22 10:56:32;;;;;;;4.03;1.83;;;6.40;99.90;;;;;;4999513;28;20036;-94
2024/02/22 10:59:04;;;;;;;3.70;2.17;;;6.50;99.90;;;;;;5006264;28;20022;-95
2024/02/22 11:01:32;;;;;;;2.33;1.65;;;6.50;99.90;;;;;;5003712;28;20102;-93
2024/02/22 11:03:59;;;;;;;2.10;1.70;;;6.50;99.90;;;;;;5009256;28;20105;-94
2024/02/22 11:06:25;;;;;;;2.42;1.45;;;6.50;99.90;;;;;;5006923;28;20018;-94
2024/02/22 11:11:30;;;;;;;3.20;1.48;;;6.60;99.90;;;;;;4959993;23;20066;-78
2024/02/22 11:14:01;;;;;;;1.42;1.33;;;6.70;99.90;;;;;;4935496;29;20047;-76
2024/02/22 11:16:40;;;;;;;2.38;1.30;;;6.70;99.90;;;;;;4932926;29;20130;-81
2024/02/22 11:19:10;;;;;;;2.50;1.50;;;6.80;99.90;;;;;;4950387;29;20589;-78
2024/02/22 11:21:39;;;;;;;4.47;1.60;;;6.80;99.90;;;;;;4935412;29;20023;-78
2024/02/22 11:24:29;;;;;;;1.50;1.42;;;6.90;99.90;;;;;;4952520;29;20023;-76
2024/02/22 11:26:56;;;;;;;1.40;1.30;;;6.90;99.90;;;;;;4953657;28;20031;-78
2024/02/22 11:29:32;;;;;;;2.25;1.27;;;6.90;99.90;;;;;;4938936;29;20023;-77
2024/02/22 11:32:03;;;;;;;3.03;1.83;;;7.00;99.90;;;;;;4939165;29;20086;-80
2024/02/22 11:34:30;;;;;;;3.05;1.73;;;7.00;99.90;;;;;;4953560;29;20038;-78
2024/02/22 11:37:16;;;;;;;2.33;1.60;;;6.90;99.90;;;;;;4956096;29;20031;-81
2024/02/22 11:39:43;;;;;;;2.75;1.83;;;7.00;99.90;;;;;;4951228;29;20027;-77
2024/02/22 11:42:15;;;;;;;2.78;1.85;;;7.00;99.90;;;;;;4955657;28;20375;-77
2024/02/22 11:44:44;;;;;;;3.17;1.80;;;7.00;99.90;;;;;;4955747;29;20027;-80
2024/02/22 11:47:12;;;;;;;4.72;2.40;;;7.10;99.90;;;;;;4956256;29;20027;-85
2024/02/22 11:49:39;;;;;;;5.47;2.47;;;7.10;99.90;;;;;;4952853;28;20344;-79
2024/02/22 11:52:04;;;;;;;2.13;1.90;;;7.20;99.90;;;;;;4936255;28;20035;-78
2024/02/22 11:54:30;;;;;;;2.28;1.90;;;7.20;99.90;;;;;;4938971;28;20046;-79
2024/02/22 11:56:56;;;;;;;2.38;1.60;;;7.20;99.90;;;;;;4956161;28;20122;-81
2024/02/22 11:59:22;;;;;;;2.15;1.90;;;7.20;99.90;;;;;;4935804;29;20028;-79
2024/02/22 12:01:49;;;;;;;2.83;1.67;;;7.20;99.90;;;;;;4936957;29;20034;-76
2024/02/22 12:04:15;;;;;;;2.67;1.70;;;7.20;99.90;;;;;;4941094;28;20028;-77
2024/02/22 12:06:42;;;;;;;2.53;1.60;;;7.20;99.90;;;;;;4946225;29;20479;-78
2024/02/22 12:09:08;;;;;;;7.30;1.67;;;7.10;99.90;;;;;;4955033;28;20023;-78
2024/02/22 12:11:35;;;;;;;3.13;1.55;;;7.10;99.90;;;;;;4955566;29;20132;-79
2024/02/22 12:14:03;;;;;;;3.47;1.92;;;7.10;99.90;;;;;;4958357;28;20368;-79
2024/02/22 12:16:30;;;;;;;1.98;1.80;;;7.10;99.90;;;;;;4952450;28;20488;-78
2024/02/22 12:18:56;;;;;;;2.10;1.27;;;7.10;99.90;;;;;;4937776;29;20034;-79
2024/02/22 12:21:27;;;;;;;3.22;1.95;;;7.10;99.90;;;;;;4955036;29;20030;-77
2024/02/22 12:23:57;;;;;;;;;;;7.10;99.90;;;;;;4955964;29;20114;-79
2024/02/22 12:26:23;;;;;;;2.83;1.33;;;7.10;99.90;;;;;;4949095;29;19917;-77
2024/02/22 12:28:51;;;;;;;3.30;1.63;;;7.00;99.90;;;;;;4939084;29;20027;-76
2024/02/22 12:31:18;;;;;;;4.70;1.60;;;7.00;99.90;;;;;;4938868;29;20066;-80
2024/02/22 12:33:50;;;;;;;0.70;0.70;;;6.90;99.90;;;;;;4954191;28;20026;-77
2024/02/22 12:36:17;;;;;;;0.20;0.20;;;6.90;99.90;;;;;;4938379;29;20028;-77
2024/02/22 12:38:44;;;;;;;0.98;0.35;;;6.80;99.90;;;;;;4934570;29;20121;-79
2024/02/22 12:41:11;;;;;;;0.20;0.20;;;6.60;99.90;;;;;;4954946;28;20027;-78
2024/02/22 12:43:39;;;;;;;0.47;0.30;;;6.40;99.90;;;;;;4954927;29;20023;-77
2024/02/22 12:46:07;;;;;;;0.20;0.20;;;6.30;99.90;;;;;;4950825;29;20086;-79
2024/02/22 12:48:33;;;;;;;0.28;0.20;;;6.20;99.90;;;;;;4936976;29;20027;-77
2024/02/22 12:50:59;;;;;;;0.63;0.40;;;6.10;99.90;;;;;;4954849;29;20027;-78
2024/02/22 12:53:25;;;;;;;0.95;0.30;;;6.00;99.90;;;;;;4954922;28;20026;-86
2024/02/22 12:55:51;;;;;;;0.30;0.30;;;5.90;99.90;;;;;;4937009;29;20360;-83
2024/02/22 12:58:17;;;;;;;0.20;0.20;;;5.90;99.90;;;;;;4933823;29;20085;-82